sensor_id;sensor_type;location;lat;lon;timestamp;P1;durP1;ratioP1;P2;durP2;ratioP2
54929;SDS011;40833;53.238;6.576;2022-11-20T00:02:19;21.83;;;13.17;;
54929;SDS011;40833;53.238;6.576;2022-11-20T00:04:45;18.87;;;11.47;;
54929;SDS011;40833;53.238;6.576;2022-11-20T00:07:10;18.13;;;11.63;;
54929;SDS011;40833;53.238;6.576;2022-11-20T00:09:36;17.63;;;11.13;;
54929;SDS011;40833;53.238;6.576;2022-11-20T00:12:02;18.13;;;11.57;;
54929;SDS011;40833;53.238;6.576;2022-11-20T00:14:28;19.27;;;11.63;;
54929;SDS011;40833;53.238;6.576;2022-11-20T00:16:53;16.90;;;11.27;;
54929;SDS011;40833;53.238;6.576;2022-11-20T00:19:19;19.57;;;11.90;;
54929;SDS011;40833;53.238;6.576;2022-11-20T00:21:45;16.90;;;11.53;;
54929;SDS011;40833;53.238;6.576;2022-11-20T00:24:10;18.53;;;12.13;;
54929;SDS011;40833;53.238;6.576;2022-11-20T00:26:36;17.80;;;11.40;;
54929;SDS011;40833;53.238;6.576;2022-11-20T00:29:02;17.53;;;11.87;;
54929;SDS011;40833;53.238;6.576;2022-11-20T00:31:28;16.57;;;11.30;;
54929;SDS011;40833;53.238;6.576;2022-11-20T00:33:54;16.77;;;10.50;;
54929;SDS011;40833;53.238;6.576;2022-11-20T00:36:21;17.77;;;10.80;;
54929;SDS011;40833;53.238;6.576;2022-11-20T00:38:52;19.67;;;11.50;;
54929;SDS011;40833;53.238;6.576;2022-11-20T00:41:19;15.43;;;10.47;;
54929;SDS011;40833;53.238;6.576;2022-11-20T00:43:45;17.30;;;10.40;;
54929;SDS011;40833;53.238;6.576;2022-11-20T00:48:42;17.07;;;11.27;;
54929;SDS011;40833;53.238;6.576;2022-11-20T00:51:08;15.77;;;10.93;;
54929;SDS011;40833;53.238;6.576;2022-11-20T00:53:34;19.30;;;10.90;;
54929;SDS011;40833;53.238;6.576;2022-11-20T00:56:04;18.53;;;10.17;;
54929;SDS011;40833;53.238;6.576;2022-11-20T00:58:34;15.77;;;9.53;;
54929;SDS011;40833;53.238;6.576;2022-11-20T01:01:02;18.03;;;10.10;;
54929;SDS011;40833;53.238;6.576;2022-11-20T01:03:33;17.33;;;10.03;;
54929;SDS011;40833;53.238;6.576;2022-11-20T01:06:04;16.00;;;10.40;;
54929;SDS011;40833;53.238;6.576;2022-11-20T01:08:41;16.70;;;10.60;;
54929;SDS011;40833;53.238;6.576;2022-11-20T01:11:08;18.73;;;10.17;;
54929;SDS011;40833;53.238;6.576;2022-11-20T01:13:36;15.23;;;10.73;;
54929;SDS011;40833;53.238;6.576;2022-11-20T01:16:06;17.43;;;9.83;;
54929;SDS011;40833;53.238;6.576;2022-11-20T01:18:41;15.60;;;10.30;;
54929;SDS011;40833;53.238;6.576;2022-11-20T01:21:15;17.10;;;10.23;;
54929;SDS011;40833;53.238;6.576;2022-11-20T01:23:45;16.17;;;10.07;;
54929;SDS011;40833;53.238;6.576;2022-11-20T01:26:13;14.20;;;9.60;;
54929;SDS011;40833;53.238;6.576;2022-11-20T01:28:40;14.50;;;9.67;;
54929;SDS011;40833;53.238;6.576;2022-11-20T01:31:14;14.60;;;10.27;;
54929;SDS011;40833;53.238;6.576;2022-11-20T01:33:45;17.47;;;10.47;;
54929;SDS011;40833;53.238;6.576;2022-11-20T01:36:12;14.90;;;9.60;;
54929;SDS011;40833;53.238;6.576;2022-11-20T01:38:39;15.93;;;9.67;;
54929;SDS011;40833;53.238;6.576;2022-11-20T01:41:05;15.07;;;9.60;;
54929;SDS011;40833;53.238;6.576;2022-11-20T01:43:32;16.50;;;10.37;;
54929;SDS011;40833;53.238;6.576;2022-11-20T01:46:00;17.57;;;11.10;;
54929;SDS011;40833;53.238;6.576;2022-11-20T01:51:40;13.02;;;9.82;;
54929;SDS011;40833;53.238;6.576;2022-11-20T01:56:44;14.90;;;10.23;;
54929;SDS011;40833;53.238;6.576;2022-11-20T01:59:13;15.13;;;10.50;;
54929;SDS011;40833;53.238;6.576;2022-11-20T02:01:43;14.57;;;9.93;;
54929;SDS011;40833;53.238;6.576;2022-11-20T02:04:08;16.67;;;10.50;;
54929;SDS011;40833;53.238;6.576;2022-11-20T02:06:38;15.20;;;10.27;;
54929;SDS011;40833;53.238;6.576;2022-11-20T02:09:16;16.27;;;10.33;;
54929;SDS011;40833;53.238;6.576;2022-11-20T02:11:42;16.23;;;10.30;;
54929;SDS011;40833;53.238;6.576;2022-11-20T02:14:08;17.13;;;10.47;;
54929;SDS011;40833;53.238;6.576;2022-11-20T02:16:35;17.23;;;10.70;;
54929;SDS011;40833;53.238;6.576;2022-11-20T02:19:05;20.07;;;10.90;;
54929;SDS011;40833;53.238;6.576;2022-11-20T02:21:51;15.80;;;10.52;;
54929;SDS011;40833;53.238;6.576;2022-11-20T02:24:19;15.87;;;10.23;;
54929;SDS011;40833;53.238;6.576;2022-11-20T02:26:54;13.60;;;9.30;;
54929;SDS011;40833;53.238;6.576;2022-11-20T02:32:21;15.43;;;10.23;;
54929;SDS011;40833;53.238;6.576;2022-11-20T02:34:48;15.43;;;9.90;;
54929;SDS011;40833;53.238;6.576;2022-11-20T02:37:14;12.10;;;9.10;;
54929;SDS011;40833;53.238;6.576;2022-11-20T02:39:41;14.20;;;9.10;;
54929;SDS011;40833;53.238;6.576;2022-11-20T02:42:09;13.37;;;9.83;;
54929;SDS011;40833;53.238;6.576;2022-11-20T02:44:35;11.67;;;8.33;;
54929;SDS011;40833;53.238;6.576;2022-11-20T02:47:00;13.90;;;9.20;;
54929;SDS011;40833;53.238;6.576;2022-11-20T02:49:26;18.30;;;10.10;;
54929;SDS011;40833;53.238;6.576;2022-11-20T02:51:52;15.07;;;9.40;;
54929;SDS011;40833;53.238;6.576;2022-11-20T02:54:18;15.20;;;9.83;;
54929;SDS011;40833;53.238;6.576;2022-11-20T02:56:43;15.40;;;10.00;;
54929;SDS011;40833;53.238;6.576;2022-11-20T02:59:09;15.23;;;10.10;;
54929;SDS011;40833;53.238;6.576;2022-11-20T03:01:35;13.90;;;9.60;;
54929;SDS011;40833;53.238;6.576;2022-11-20T03:04:01;14.70;;;10.30;;
54929;SDS011;40833;53.238;6.576;2022-11-20T03:06:27;15.20;;;9.20;;
54929;SDS011;40833;53.238;6.576;2022-11-20T03:08:53;12.87;;;8.77;;
54929;SDS011;40833;53.238;6.576;2022-11-20T03:11:19;13.77;;;9.23;;
54929;SDS011;40833;53.238;6.576;2022-11-20T03:13:45;16.00;;;10.17;;
54929;SDS011;40833;53.238;6.576;2022-11-20T03:16:12;16.27;;;9.50;;
54929;SDS011;40833;53.238;6.576;2022-11-20T03:18:40;14.23;;;9.80;;
54929;SDS011;40833;53.238;6.576;2022-11-20T03:21:06;14.80;;;9.80;;
54929;SDS011;40833;53.238;6.576;2022-11-20T03:23:33;15.80;;;9.47;;
54929;SDS011;40833;53.238;6.576;2022-11-20T03:26:17;15.13;;;10.17;;
54929;SDS011;40833;53.238;6.576;2022-11-20T03:28:50;16.77;;;9.77;;
54929;SDS011;40833;53.238;6.576;2022-11-20T03:31:38;14.90;;;9.43;;
54929;SDS011;40833;53.238;6.576;2022-11-20T03:34:06;12.67;;;8.57;;
54929;SDS011;40833;53.238;6.576;2022-11-20T03:36:33;16.87;;;9.30;;
54929;SDS011;40833;53.238;6.576;2022-11-20T03:38:59;13.50;;;9.00;;
54929;SDS011;40833;53.238;6.576;2022-11-20T03:41:26;14.13;;;9.63;;
54929;SDS011;40833;53.238;6.576;2022-11-20T03:43:57;14.73;;;10.27;;
54929;SDS011;40833;53.238;6.576;2022-11-20T03:46:24;14.63;;;10.20;;
54929;SDS011;40833;53.238;6.576;2022-11-20T03:48:51;13.73;;;8.87;;
54929;SDS011;40833;53.238;6.576;2022-11-20T03:51:19;14.67;;;9.47;;
54929;SDS011;40833;53.238;6.576;2022-11-20T03:53:50;16.02;;;9.02;;
54929;SDS011;40833;53.238;6.576;2022-11-20T03:56:18;13.63;;;8.97;;
54929;SDS011;40833;53.238;6.576;2022-11-20T03:58:46;16.13;;;10.37;;
54929;SDS011;40833;53.238;6.576;2022-11-20T04:01:21;14.13;;;9.67;;
54929;SDS011;40833;53.238;6.576;2022-11-20T04:03:51;12.87;;;9.07;;
54929;SDS011;40833;53.238;6.576;2022-11-20T04:06:23;14.67;;;9.20;;
54929;SDS011;40833;53.238;6.576;2022-11-20T04:08:51;13.73;;;9.33;;
54929;SDS011;40833;53.238;6.576;2022-11-20T04:11:19;14.73;;;9.20;;
54929;SDS011;40833;53.238;6.576;2022-11-20T04:13:48;15.70;;;8.83;;
54929;SDS011;40833;53.238;6.576;2022-11-20T04:16:15;13.30;;;9.20;;
54929;SDS011;40833;53.238;6.576;2022-11-20T04:18:41;14.53;;;9.33;;
54929;SDS011;40833;53.238;6.576;2022-11-20T04:21:08;12.30;;;8.93;;
54929;SDS011;40833;53.238;6.576;2022-11-20T04:23:34;14.30;;;9.80;;
54929;SDS011;40833;53.238;6.576;2022-11-20T04:26:07;14.90;;;9.50;;
54929;SDS011;40833;53.238;6.576;2022-11-20T04:28:34;14.10;;;10.33;;
54929;SDS011;40833;53.238;6.576;2022-11-20T04:31:08;15.23;;;9.80;;
54929;SDS011;40833;53.238;6.576;2022-11-20T04:33:36;16.53;;;10.13;;
54929;SDS011;40833;53.238;6.576;2022-11-20T04:36:06;16.80;;;10.73;;
54929;SDS011;40833;53.238;6.576;2022-11-20T04:38:36;15.93;;;10.20;;
54929;SDS011;40833;53.238;6.576;2022-11-20T04:41:03;18.00;;;10.40;;
54929;SDS011;40833;53.238;6.576;2022-11-20T04:43:30;14.67;;;9.77;;
54929;SDS011;40833;53.238;6.576;2022-11-20T04:45:56;13.37;;;9.80;;
54929;SDS011;40833;53.238;6.576;2022-11-20T04:48:23;13.90;;;9.73;;
54929;SDS011;40833;53.238;6.576;2022-11-20T04:50:50;14.10;;;9.87;;
54929;SDS011;40833;53.238;6.576;2022-11-20T04:53:16;17.10;;;10.50;;
54929;SDS011;40833;53.238;6.576;2022-11-20T04:55:42;13.90;;;9.40;;
54929;SDS011;40833;53.238;6.576;2022-11-20T04:58:08;16.13;;;9.40;;
54929;SDS011;40833;53.238;6.576;2022-11-20T05:00:33;13.53;;;9.57;;
54929;SDS011;40833;53.238;6.576;2022-11-20T05:02:59;13.33;;;9.57;;
54929;SDS011;40833;53.238;6.576;2022-11-20T05:05:25;12.77;;;9.23;;
54929;SDS011;40833;53.238;6.576;2022-11-20T05:07:51;12.13;;;8.80;;
54929;SDS011;40833;53.238;6.576;2022-11-20T05:10:16;13.83;;;8.83;;
54929;SDS011;40833;53.238;6.576;2022-11-20T05:12:42;12.03;;;9.03;;
54929;SDS011;40833;53.238;6.576;2022-11-20T05:15:08;14.33;;;9.03;;
54929;SDS011;40833;53.238;6.576;2022-11-20T05:17:34;14.00;;;8.53;;
54929;SDS011;40833;53.238;6.576;2022-11-20T05:19:59;12.07;;;8.90;;
54929;SDS011;40833;53.238;6.576;2022-11-20T05:22:25;13.77;;;10.43;;
54929;SDS011;40833;53.238;6.576;2022-11-20T05:24:51;14.73;;;9.23;;
54929;SDS011;40833;53.238;6.576;2022-11-20T05:27:16;13.27;;;9.77;;
54929;SDS011;40833;53.238;6.576;2022-11-20T05:29:42;14.70;;;10.07;;
54929;SDS011;40833;53.238;6.576;2022-11-20T05:32:07;14.77;;;10.27;;
54929;SDS011;40833;53.238;6.576;2022-11-20T05:34:34;13.60;;;9.40;;
54929;SDS011;40833;53.238;6.576;2022-11-20T05:37:01;13.00;;;9.47;;
54929;SDS011;40833;53.238;6.576;2022-11-20T05:39:27;16.40;;;10.33;;
54929;SDS011;40833;53.238;6.576;2022-11-20T05:41:53;15.30;;;9.60;;
54929;SDS011;40833;53.238;6.576;2022-11-20T05:44:51;15.93;;;9.20;;
54929;SDS011;40833;53.238;6.576;2022-11-20T05:47:16;16.87;;;10.10;;
54929;SDS011;40833;53.238;6.576;2022-11-20T05:49:42;14.03;;;9.30;;
54929;SDS011;40833;53.238;6.576;2022-11-20T05:52:08;13.83;;;9.37;;
54929;SDS011;40833;53.238;6.576;2022-11-20T05:54:33;14.50;;;10.07;;
54929;SDS011;40833;53.238;6.576;2022-11-20T05:56:59;15.10;;;9.30;;
54929;SDS011;40833;53.238;6.576;2022-11-20T05:59:25;14.67;;;10.10;;
54929;SDS011;40833;53.238;6.576;2022-11-20T06:01:51;13.37;;;9.30;;
54929;SDS011;40833;53.238;6.576;2022-11-20T06:04:17;12.77;;;8.53;;
54929;SDS011;40833;53.238;6.576;2022-11-20T06:06:42;17.23;;;10.47;;
54929;SDS011;40833;53.238;6.576;2022-11-20T06:09:08;12.87;;;8.87;;
54929;SDS011;40833;53.238;6.576;2022-11-20T06:11:34;13.53;;;8.70;;
54929;SDS011;40833;53.238;6.576;2022-11-20T06:13:59;12.53;;;8.63;;
54929;SDS011;40833;53.238;6.576;2022-11-20T06:16:25;14.27;;;9.07;;
54929;SDS011;40833;53.238;6.576;2022-11-20T06:18:51;14.00;;;8.80;;
54929;SDS011;40833;53.238;6.576;2022-11-20T06:21:17;13.33;;;8.63;;
54929;SDS011;40833;53.238;6.576;2022-11-20T06:23:45;12.50;;;9.20;;
54929;SDS011;40833;53.238;6.576;2022-11-20T06:26:16;13.57;;;9.43;;
54929;SDS011;40833;53.238;6.576;2022-11-20T06:28:46;12.90;;;9.10;;
54929;SDS011;40833;53.238;6.576;2022-11-20T06:31:14;13.67;;;8.60;;
54929;SDS011;40833;53.238;6.576;2022-11-20T06:33:42;11.93;;;8.20;;
54929;SDS011;40833;53.238;6.576;2022-11-20T06:36:09;12.30;;;8.30;;
54929;SDS011;40833;53.238;6.576;2022-11-20T06:38:36;12.40;;;8.93;;
54929;SDS011;40833;53.238;6.576;2022-11-20T06:41:03;10.37;;;7.73;;
54929;SDS011;40833;53.238;6.576;2022-11-20T06:43:29;12.37;;;9.10;;
54929;SDS011;40833;53.238;6.576;2022-11-20T06:45:56;11.20;;;8.17;;
54929;SDS011;40833;53.238;6.576;2022-11-20T06:48:22;13.10;;;8.17;;
54929;SDS011;40833;53.238;6.576;2022-11-20T06:50:49;13.77;;;9.00;;
54929;SDS011;40833;53.238;6.576;2022-11-20T06:53:15;11.87;;;8.63;;
54929;SDS011;40833;53.238;6.576;2022-11-20T06:55:44;14.17;;;8.83;;
54929;SDS011;40833;53.238;6.576;2022-11-20T06:58:11;12.17;;;8.77;;
54929;SDS011;40833;53.238;6.576;2022-11-20T07:00:38;12.23;;;8.13;;
54929;SDS011;40833;53.238;6.576;2022-11-20T07:03:05;11.30;;;7.90;;
54929;SDS011;40833;53.238;6.576;2022-11-20T07:05:31;11.17;;;7.93;;
54929;SDS011;40833;53.238;6.576;2022-11-20T07:07:58;12.20;;;8.27;;
54929;SDS011;40833;53.238;6.576;2022-11-20T07:10:24;10.97;;;8.27;;
54929;SDS011;40833;53.238;6.576;2022-11-20T07:12:50;10.93;;;8.63;;
54929;SDS011;40833;53.238;6.576;2022-11-20T07:15:19;14.53;;;8.60;;
54929;SDS011;40833;53.238;6.576;2022-11-20T07:17:46;12.00;;;8.47;;
54929;SDS011;40833;53.238;6.576;2022-11-20T07:20:12;16.17;;;9.23;;
54929;SDS011;40833;53.238;6.576;2022-11-20T07:22:38;14.43;;;8.20;;
54929;SDS011;40833;53.238;6.576;2022-11-20T07:25:04;12.27;;;9.00;;
54929;SDS011;40833;53.238;6.576;2022-11-20T07:27:30;12.40;;;8.50;;
54929;SDS011;40833;53.238;6.576;2022-11-20T07:29:56;14.43;;;9.50;;
54929;SDS011;40833;53.238;6.576;2022-11-20T07:32:22;12.70;;;9.40;;
54929;SDS011;40833;53.238;6.576;2022-11-20T07:34:48;11.50;;;8.73;;
54929;SDS011;40833;53.238;6.576;2022-11-20T07:37:14;11.67;;;8.83;;
54929;SDS011;40833;53.238;6.576;2022-11-20T07:39:40;21.97;;;8.97;;
54929;SDS011;40833;53.238;6.576;2022-11-20T07:42:06;13.13;;;8.63;;
54929;SDS011;40833;53.238;6.576;2022-11-20T07:44:32;11.60;;;7.93;;
54929;SDS011;40833;53.238;6.576;2022-11-20T07:46:58;15.20;;;8.50;;
54929;SDS011;40833;53.238;6.576;2022-11-20T07:49:24;12.33;;;8.27;;
54929;SDS011;40833;53.238;6.576;2022-11-20T07:51:50;12.37;;;8.70;;
54929;SDS011;40833;53.238;6.576;2022-11-20T07:54:16;11.90;;;8.83;;
54929;SDS011;40833;53.238;6.576;2022-11-20T07:56:42;12.63;;;8.93;;
54929;SDS011;40833;53.238;6.576;2022-11-20T07:59:07;13.73;;;8.90;;
54929;SDS011;40833;53.238;6.576;2022-11-20T08:01:33;13.07;;;8.23;;
54929;SDS011;40833;53.238;6.576;2022-11-20T08:03:59;14.80;;;9.90;;
54929;SDS011;40833;53.238;6.576;2022-11-20T08:06:24;14.77;;;10.40;;
54929;SDS011;40833;53.238;6.576;2022-11-20T08:08:50;15.20;;;9.40;;
54929;SDS011;40833;53.238;6.576;2022-11-20T08:11:16;14.37;;;8.57;;
54929;SDS011;40833;53.238;6.576;2022-11-20T08:14:00;12.27;;;8.40;;
54929;SDS011;40833;53.238;6.576;2022-11-20T08:16:39;14.20;;;8.73;;
54929;SDS011;40833;53.238;6.576;2022-11-20T08:19:12;11.80;;;8.43;;
54929;SDS011;40833;53.238;6.576;2022-11-20T08:21:39;13.00;;;8.67;;
54929;SDS011;40833;53.238;6.576;2022-11-20T08:24:06;11.90;;;8.80;;
54929;SDS011;40833;53.238;6.576;2022-11-20T08:26:32;12.07;;;8.13;;
54929;SDS011;40833;53.238;6.576;2022-11-20T08:28:58;14.17;;;8.20;;
54929;SDS011;40833;53.238;6.576;2022-11-20T08:31:25;15.77;;;8.13;;
54929;SDS011;40833;53.238;6.576;2022-11-20T08:33:52;11.80;;;8.10;;
54929;SDS011;40833;53.238;6.576;2022-11-20T08:36:18;13.87;;;8.60;;
54929;SDS011;40833;53.238;6.576;2022-11-20T08:38:51;11.70;;;8.57;;
54929;SDS011;40833;53.238;6.576;2022-11-20T08:41:19;10.83;;;8.10;;
54929;SDS011;40833;53.238;6.576;2022-11-20T08:43:50;14.80;;;9.20;;
54929;SDS011;40833;53.238;6.576;2022-11-20T08:46:18;15.33;;;8.87;;
54929;SDS011;40833;53.238;6.576;2022-11-20T08:48:44;11.50;;;8.10;;
54929;SDS011;40833;53.238;6.576;2022-11-20T08:51:10;11.57;;;8.23;;
54929;SDS011;40833;53.238;6.576;2022-11-20T08:53:37;11.60;;;7.93;;
54929;SDS011;40833;53.238;6.576;2022-11-20T08:56:03;12.23;;;8.43;;
54929;SDS011;40833;53.238;6.576;2022-11-20T08:58:29;11.37;;;8.07;;
54929;SDS011;40833;53.238;6.576;2022-11-20T09:00:55;11.60;;;8.17;;
54929;SDS011;40833;53.238;6.576;2022-11-20T09:03:21;10.93;;;7.30;;
54929;SDS011;40833;53.238;6.576;2022-11-20T09:05:47;9.63;;;7.53;;
54929;SDS011;40833;53.238;6.576;2022-11-20T09:08:13;12.20;;;8.67;;
54929;SDS011;40833;53.238;6.576;2022-11-20T09:10:38;11.73;;;9.13;;
54929;SDS011;40833;53.238;6.576;2022-11-20T09:13:07;12.93;;;9.27;;
54929;SDS011;40833;53.238;6.576;2022-11-20T09:15:32;13.63;;;9.47;;
54929;SDS011;40833;53.238;6.576;2022-11-20T09:17:59;15.60;;;8.87;;
54929;SDS011;40833;53.238;6.576;2022-11-20T09:20:28;13.77;;;10.00;;
54929;SDS011;40833;53.238;6.576;2022-11-20T09:22:55;15.20;;;9.53;;
54929;SDS011;40833;53.238;6.576;2022-11-20T09:25:21;14.27;;;10.03;;
54929;SDS011;40833;53.238;6.576;2022-11-20T09:27:46;12.03;;;8.87;;
54929;SDS011;40833;53.238;6.576;2022-11-20T09:30:15;14.00;;;9.60;;
54929;SDS011;40833;53.238;6.576;2022-11-20T09:32:41;14.23;;;9.90;;
54929;SDS011;40833;53.238;6.576;2022-11-20T09:35:08;15.77;;;9.90;;
54929;SDS011;40833;53.238;6.576;2022-11-20T09:37:34;12.57;;;9.43;;
54929;SDS011;40833;53.238;6.576;2022-11-20T09:40:00;12.23;;;8.83;;
54929;SDS011;40833;53.238;6.576;2022-11-20T09:42:41;12.73;;;8.93;;
54929;SDS011;40833;53.238;6.576;2022-11-20T09:53:16;17.60;;;10.27;;
54929;SDS011;40833;53.238;6.576;2022-11-20T09:55:54;13.30;;;9.13;;
54929;SDS011;40833;53.238;6.576;2022-11-20T10:01:18;13.37;;;9.60;;
54929;SDS011;40833;53.238;6.576;2022-11-20T10:06:29;13.67;;;9.43;;
54929;SDS011;40833;53.238;6.576;2022-11-20T10:08:59;13.30;;;9.43;;
54929;SDS011;40833;53.238;6.576;2022-11-20T10:11:35;14.47;;;9.30;;
54929;SDS011;40833;53.238;6.576;2022-11-20T10:25:05;10.90;;;8.80;;
54929;SDS011;40833;53.238;6.576;2022-11-20T10:30:30;12.57;;;8.13;;
54929;SDS011;40833;53.238;6.576;2022-11-20T10:33:03;11.67;;;8.97;;
54929;SDS011;40833;53.238;6.576;2022-11-20T10:35:49;11.60;;;9.00;;
54929;SDS011;40833;53.238;6.576;2022-11-20T10:38:40;13.23;;;9.02;;
54929;SDS011;40833;53.238;6.576;2022-11-20T10:41:44;14.10;;;9.10;;
54929;SDS011;40833;53.238;6.576;2022-11-20T10:44:16;10.77;;;7.57;;
54929;SDS011;40833;53.238;6.576;2022-11-20T10:47:04;10.10;;;8.03;;
54929;SDS011;40833;53.238;6.576;2022-11-20T10:49:36;10.73;;;8.20;;
54929;SDS011;40833;53.238;6.576;2022-11-20T10:52:09;13.87;;;8.53;;
54929;SDS011;40833;53.238;6.576;2022-11-20T10:54:39;13.10;;;7.70;;
54929;SDS011;40833;53.238;6.576;2022-11-20T10:57:20;11.03;;;7.87;;
54929;SDS011;40833;53.238;6.576;2022-11-20T11:00:11;10.90;;;8.50;;
54929;SDS011;40833;53.238;6.576;2022-11-20T11:02:42;10.63;;;7.47;;
54929;SDS011;40833;53.238;6.576;2022-11-20T11:08:05;9.87;;;7.03;;
54929;SDS011;40833;53.238;6.576;2022-11-20T11:10:40;10.33;;;7.40;;
54929;SDS011;40833;53.238;6.576;2022-11-20T11:13:20;9.60;;;7.40;;
54929;SDS011;40833;53.238;6.576;2022-11-20T11:15:46;10.33;;;8.03;;
54929;SDS011;40833;53.238;6.576;2022-11-20T11:18:22;9.27;;;6.87;;
54929;SDS011;40833;53.238;6.576;2022-11-20T11:20:53;11.07;;;7.50;;
54929;SDS011;40833;53.238;6.576;2022-11-20T11:26:38;10.37;;;7.63;;
54929;SDS011;40833;53.238;6.576;2022-11-20T11:29:04;10.87;;;7.50;;
54929;SDS011;40833;53.238;6.576;2022-11-20T11:31:30;9.57;;;7.73;;
54929;SDS011;40833;53.238;6.576;2022-11-20T11:34:05;8.50;;;7.00;;
54929;SDS011;40833;53.238;6.576;2022-11-20T11:36:31;9.23;;;6.80;;
54929;SDS011;40833;53.238;6.576;2022-11-20T11:39:01;7.83;;;6.60;;
54929;SDS011;40833;53.238;6.576;2022-11-20T11:41:30;9.07;;;7.10;;
54929;SDS011;40833;53.238;6.576;2022-11-20T11:44:43;7.97;;;6.73;;
54929;SDS011;40833;53.238;6.576;2022-11-20T11:47:26;11.60;;;7.63;;
54929;SDS011;40833;53.238;6.576;2022-11-20T11:52:44;9.17;;;7.20;;
54929;SDS011;40833;53.238;6.576;2022-11-20T11:55:14;11.10;;;7.10;;
54929;SDS011;40833;53.238;6.576;2022-11-20T11:58:16;8.50;;;6.43;;
54929;SDS011;40833;53.238;6.576;2022-11-20T12:01:04;8.70;;;6.90;;
54929;SDS011;40833;53.238;6.576;2022-11-20T12:03:55;8.47;;;6.63;;
54929;SDS011;40833;53.238;6.576;2022-11-20T12:06:27;9.67;;;6.83;;
54929;SDS011;40833;53.238;6.576;2022-11-20T12:09:10;9.57;;;6.77;;
54929;SDS011;40833;53.238;6.576;2022-11-20T12:14:32;8.47;;;6.40;;
54929;SDS011;40833;53.238;6.576;2022-11-20T12:17:02;6.87;;;5.90;;
54929;SDS011;40833;53.238;6.576;2022-11-20T12:19:31;6.53;;;5.33;;
54929;SDS011;40833;53.238;6.576;2022-11-20T12:22:05;7.43;;;5.70;;
54929;SDS011;40833;53.238;6.576;2022-11-20T12:30:12;6.20;;;5.57;;
54929;SDS011;40833;53.238;6.576;2022-11-20T12:43:37;5.87;;;4.30;;
54929;SDS011;40833;53.238;6.576;2022-11-20T12:46:47;5.90;;;4.57;;
54929;SDS011;40833;53.238;6.576;2022-11-20T12:49:38;4.73;;;4.27;;
54929;SDS011;40833;53.238;6.576;2022-11-20T12:52:12;5.33;;;3.77;;
54929;SDS011;40833;53.238;6.576;2022-11-20T12:57:38;8.45;;;4.13;;
54929;SDS011;40833;53.238;6.576;2022-11-20T13:00:26;4.67;;;4.03;;
54929;SDS011;40833;53.238;6.576;2022-11-20T13:08:00;4.40;;;4.00;;
54929;SDS011;40833;53.238;6.576;2022-11-20T13:13:00;5.73;;;4.27;;
54929;SDS011;40833;53.238;6.576;2022-11-20T13:18:23;5.23;;;4.00;;
54929;SDS011;40833;53.238;6.576;2022-11-20T13:20:49;3.60;;;3.30;;
54929;SDS011;40833;53.238;6.576;2022-11-20T13:23:25;6.97;;;3.53;;
54929;SDS011;40833;53.238;6.576;2022-11-20T13:26:05;5.97;;;4.17;;
54929;SDS011;40833;53.238;6.576;2022-11-20T13:28:40;6.33;;;3.43;;
54929;SDS011;40833;53.238;6.576;2022-11-20T13:31:09;7.13;;;4.20;;
54929;SDS011;40833;53.238;6.576;2022-11-20T13:33:54;4.43;;;4.00;;
54929;SDS011;40833;53.238;6.576;2022-11-20T13:36:23;5.30;;;3.80;;
54929;SDS011;40833;53.238;6.576;2022-11-20T13:38:54;4.53;;;3.87;;
54929;SDS011;40833;53.238;6.576;2022-11-20T13:41:25;6.83;;;4.40;;
54929;SDS011;40833;53.238;6.576;2022-11-20T13:44:09;5.07;;;4.03;;
54929;SDS011;40833;53.238;6.576;2022-11-20T13:46:58;5.70;;;3.90;;
54929;SDS011;40833;53.238;6.576;2022-11-20T13:49:29;5.77;;;4.13;;
54929;SDS011;40833;53.238;6.576;2022-11-20T13:52:14;4.80;;;4.10;;
54929;SDS011;40833;53.238;6.576;2022-11-20T14:00:46;6.90;;;5.47;;
54929;SDS011;40833;53.238;6.576;2022-11-20T14:03:22;7.73;;;4.97;;
54929;SDS011;40833;53.238;6.576;2022-11-20T14:05:56;5.50;;;4.63;;
54929;SDS011;40833;53.238;6.576;2022-11-20T14:08:32;6.43;;;4.60;;
54929;SDS011;40833;53.238;6.576;2022-11-20T14:11:05;5.37;;;4.60;;
54929;SDS011;40833;53.238;6.576;2022-11-20T14:13:37;10.10;;;4.30;;
54929;SDS011;40833;53.238;6.576;2022-11-20T14:16:03;6.57;;;5.10;;
54929;SDS011;40833;53.238;6.576;2022-11-20T14:18:28;8.90;;;4.83;;
54929;SDS011;40833;53.238;6.576;2022-11-20T14:20:54;7.37;;;4.97;;
54929;SDS011;40833;53.238;6.576;2022-11-20T14:23:24;7.07;;;5.27;;
54929;SDS011;40833;53.238;6.576;2022-11-20T14:25:51;5.87;;;4.60;;
54929;SDS011;40833;53.238;6.576;2022-11-20T14:28:28;6.10;;;4.97;;
54929;SDS011;40833;53.238;6.576;2022-11-20T14:30:55;6.10;;;4.83;;
54929;SDS011;40833;53.238;6.576;2022-11-20T14:33:22;6.97;;;4.97;;
54929;SDS011;40833;53.238;6.576;2022-11-20T14:35:56;8.40;;;5.60;;
54929;SDS011;40833;53.238;6.576;2022-11-20T14:38:29;8.97;;;5.57;;
54929;SDS011;40833;53.238;6.576;2022-11-20T14:41:16;6.63;;;5.70;;
54929;SDS011;40833;53.238;6.576;2022-11-20T14:43:58;5.83;;;4.67;;
54929;SDS011;40833;53.238;6.576;2022-11-20T14:46:26;5.63;;;5.03;;
54929;SDS011;40833;53.238;6.576;2022-11-20T14:48:54;9.63;;;6.07;;
54929;SDS011;40833;53.238;6.576;2022-11-20T14:53:56;7.23;;;5.30;;
54929;SDS011;40833;53.238;6.576;2022-11-20T14:56:33;8.20;;;6.30;;
54929;SDS011;40833;53.238;6.576;2022-11-20T14:58:59;6.80;;;5.53;;
54929;SDS011;40833;53.238;6.576;2022-11-20T15:01:25;11.13;;;6.40;;
54929;SDS011;40833;53.238;6.576;2022-11-20T15:04:00;8.40;;;6.77;;
54929;SDS011;40833;53.238;6.576;2022-11-20T15:06:29;8.60;;;5.63;;
54929;SDS011;40833;53.238;6.576;2022-11-20T15:08:56;8.43;;;5.60;;
54929;SDS011;40833;53.238;6.576;2022-11-20T15:11:27;6.93;;;5.47;;
54929;SDS011;40833;53.238;6.576;2022-11-20T15:14:00;8.07;;;5.70;;
54929;SDS011;40833;53.238;6.576;2022-11-20T15:16:29;6.60;;;5.17;;
54929;SDS011;40833;53.238;6.576;2022-11-20T15:18:55;9.17;;;6.10;;
54929;SDS011;40833;53.238;6.576;2022-11-20T15:21:22;8.27;;;5.70;;
54929;SDS011;40833;53.238;6.576;2022-11-20T15:23:48;11.00;;;6.50;;
54929;SDS011;40833;53.238;6.576;2022-11-20T15:26:15;9.77;;;6.97;;
54929;SDS011;40833;53.238;6.576;2022-11-20T15:28:49;8.50;;;6.23;;
54929;SDS011;40833;53.238;6.576;2022-11-20T15:31:19;13.10;;;6.83;;
54929;SDS011;40833;53.238;6.576;2022-11-20T15:33:46;9.45;;;6.68;;
54929;SDS011;40833;53.238;6.576;2022-11-20T15:36:12;9.87;;;6.77;;
54929;SDS011;40833;53.238;6.576;2022-11-20T15:38:38;11.27;;;6.87;;
54929;SDS011;40833;53.238;6.576;2022-11-20T15:41:04;9.77;;;6.73;;
54929;SDS011;40833;53.238;6.576;2022-11-20T15:43:30;12.57;;;8.50;;
54929;SDS011;40833;53.238;6.576;2022-11-20T15:45:56;16.33;;;9.87;;
54929;SDS011;40833;53.238;6.576;2022-11-20T15:48:41;10.70;;;7.40;;
54929;SDS011;40833;53.238;6.576;2022-11-20T15:53:35;8.50;;;7.00;;
54929;SDS011;40833;53.238;6.576;2022-11-20T15:56:01;10.07;;;7.30;;
54929;SDS011;40833;53.238;6.576;2022-11-20T15:58:27;10.17;;;7.00;;
54929;SDS011;40833;53.238;6.576;2022-11-20T16:00:53;11.33;;;7.03;;
54929;SDS011;40833;53.238;6.576;2022-11-20T16:03:19;9.27;;;6.80;;
54929;SDS011;40833;53.238;6.576;2022-11-20T16:05:45;10.80;;;7.17;;
54929;SDS011;40833;53.238;6.576;2022-11-20T16:08:10;10.50;;;7.00;;
54929;SDS011;40833;53.238;6.576;2022-11-20T16:10:36;10.37;;;7.37;;
54929;SDS011;40833;53.238;6.576;2022-11-20T16:13:02;12.17;;;7.33;;
54929;SDS011;40833;53.238;6.576;2022-11-20T16:15:50;11.03;;;8.10;;
54929;SDS011;40833;53.238;6.576;2022-11-20T16:18:21;13.93;;;7.97;;
54929;SDS011;40833;53.238;6.576;2022-11-20T16:20:55;12.90;;;8.40;;
54929;SDS011;40833;53.238;6.576;2022-11-20T16:23:22;11.83;;;8.50;;